createdAt,value
2019-02-25T00:00:12.153Z,0.00
2019-02-25T00:01:12.070Z,0.00
2019-02-25T00:02:11.981Z,0.00
2019-02-25T00:03:11.891Z,0.00
2019-02-25T00:04:11.804Z,0.00
2019-02-25T00:05:11.713Z,0.00
2019-02-25T00:06:11.625Z,0.00
2019-02-25T00:07:11.541Z,0.00
2019-02-25T00:08:11.449Z,0.00
2019-02-25T00:09:11.364Z,0.00
2019-02-25T00:10:11.273Z,0.00
2019-02-25T00:11:11.201Z,0.00
2019-02-25T00:12:11.098Z,0.00
2019-02-25T00:13:11.009Z,0.00
2019-02-25T00:14:10.918Z,0.00
2019-02-25T00:15:10.837Z,0.00
2019-02-25T00:16:10.745Z,0.00
2019-02-25T00:17:10.661Z,0.00
2019-02-25T00:18:10.570Z,0.00
2019-02-25T00:19:10.479Z,0.00
2019-02-25T00:20:10.392Z,0.00
2019-02-25T00:21:10.311Z,0.00
2019-02-25T00:22:10.217Z,0.00
2019-02-25T00:23:10.127Z,0.00
2019-02-25T00:24:10.039Z,0.00
2019-02-25T00:25:09.946Z,0.00
2019-02-25T00:26:09.854Z,0.00
2019-02-25T00:27:09.772Z,0.00
2019-02-25T00:28:09.678Z,0.00
2019-02-25T00:29:09.590Z,0.00
2019-02-25T00:30:09.510Z,0.00
2019-02-25T00:31:09.422Z,0.00
2019-02-25T00:32:09.336Z,0.00
2019-02-25T00:33:09.241Z,0.00
2019-02-25T00:34:09.154Z,0.00
2019-02-25T00:35:09.073Z,0.00
2019-02-25T00:36:08.983Z,0.00
2019-02-25T00:37:08.891Z,0.00
2019-02-25T00:38:08.796Z,0.00
2019-02-25T00:39:08.712Z,0.00
2019-02-25T00:40:08.624Z,0.00
2019-02-25T00:41:08.535Z,0.00
2019-02-25T00:42:08.449Z,0.00
2019-02-25T00:43:08.358Z,0.00
2019-02-25T00:44:08.276Z,0.00
2019-02-25T00:45:08.196Z,0.00
2019-02-25T00:46:08.092Z,0.00
2019-02-25T00:47:08.004Z,0.00
2019-02-25T00:48:07.910Z,0.00
2019-02-25T00:49:07.826Z,0.00
2019-02-25T00:50:07.740Z,0.00
2019-02-25T00:51:07.654Z,0.00
2019-02-25T00:52:07.562Z,0.00
2019-02-25T00:53:07.476Z,0.00
2019-02-25T00:54:07.383Z,0.00
2019-02-25T00:55:07.300Z,0.00
2019-02-25T00:56:07.206Z,0.00
2019-02-25T00:57:08.974Z,0.00
2019-02-25T00:58:07.030Z,0.00
2019-02-25T00:59:06.943Z,0.00
2019-02-25T01:00:06.857Z,0.00
2019-02-25T01:01:06.768Z,0.00
2019-02-25T01:02:06.678Z,0.00
2019-02-25T01:03:06.588Z,0.00
2019-02-25T01:04:06.502Z,0.00
2019-02-25T01:05:06.410Z,0.00
2019-02-25T01:06:06.326Z,0.00
2019-02-25T01:07:06.237Z,0.00
2019-02-25T01:08:07.721Z,0.00
2019-02-25T01:09:06.054Z,0.00
2019-02-25T01:10:05.967Z,0.00
2019-02-25T01:11:05.882Z,0.00
2019-02-25T01:12:05.785Z,0.00
2019-02-25T01:13:05.706Z,0.00
2019-02-25T01:14:05.643Z,0.00
2019-02-25T01:15:06.222Z,0.00
2019-02-25T01:16:05.438Z,0.00
2019-02-25T01:17:05.348Z,0.00
2019-02-25T01:18:05.260Z,0.00
2019-02-25T01:19:05.169Z,0.00
2019-02-25T01:20:05.083Z,0.00
2019-02-25T01:21:04.995Z,0.00
2019-02-25T01:22:04.909Z,0.00
2019-02-25T01:23:04.818Z,0.00
2019-02-25T01:24:04.721Z,0.00
2019-02-25T01:25:04.640Z,0.00
2019-02-25T01:26:04.550Z,0.00
2019-02-25T01:27:04.463Z,0.00
2019-02-25T01:28:04.389Z,0.00
2019-02-25T01:29:04.292Z,0.00
2019-02-25T01:30:04.198Z,0.00
2019-02-25T01:31:04.103Z,0.00
2019-02-25T01:32:04.021Z,0.00
2019-02-25T01:33:03.940Z,0.00
2019-02-25T01:34:03.844Z,0.00
2019-02-25T01:35:03.755Z,0.00
2019-02-25T01:36:03.664Z,0.00
2019-02-25T01:37:03.568Z,0.00
2019-02-25T01:38:03.489Z,0.00
2019-02-25T01:39:03.393Z,0.00
2019-02-25T01:40:03.308Z,0.00
2019-02-25T01:41:03.221Z,0.00
2019-02-25T01:42:03.133Z,0.00
2019-02-25T01:43:03.043Z,0.00
2019-02-25T01:44:02.954Z,0.00
2019-02-25T01:45:02.862Z,0.00
2019-02-25T01:46:02.777Z,0.00
2019-02-25T01:47:02.689Z,0.00
2019-02-25T01:48:02.597Z,0.00
2019-02-25T01:49:02.509Z,0.00
2019-02-25T01:50:02.419Z,0.00
2019-02-25T01:51:02.334Z,0.00
2019-02-25T01:52:02.240Z,0.00
2019-02-25T01:53:02.157Z,0.00
2019-02-25T01:54:02.060Z,0.00
2019-02-25T01:55:01.972Z,0.00
2019-02-25T01:56:01.886Z,0.00
2019-02-25T01:57:01.795Z,0.00
2019-02-25T01:58:01.703Z,0.00
2019-02-25T01:59:01.620Z,0.00
2019-02-25T02:00:01.530Z,0.00
2019-02-25T02:01:01.438Z,0.00
2019-02-25T02:02:01.352Z,0.00
2019-02-25T02:03:01.264Z,0.00
2019-02-25T02:04:01.174Z,0.00
2019-02-25T02:05:01.080Z,0.00
2019-02-25T02:06:00.998Z,0.00
2019-02-25T02:07:00.911Z,0.00
2019-02-25T02:08:00.817Z,0.00
2019-02-25T02:09:00.726Z,0.00
2019-02-25T02:10:00.640Z,0.00
2019-02-25T02:11:00.550Z,0.00
2019-02-25T02:12:00.462Z,0.00
2019-02-25T02:13:00.371Z,0.00
2019-02-25T02:14:00.291Z,0.00
2019-02-25T02:15:00.325Z,0.00
2019-02-25T02:16:00.106Z,0.00
2019-02-25T02:17:00.018Z,0.00
2019-02-25T02:17:59.928Z,0.00
2019-02-25T02:18:59.839Z,0.00
2019-02-25T02:19:59.750Z,0.00
2019-02-25T02:20:59.661Z,0.00
2019-02-25T02:21:59.575Z,0.00
2019-02-25T02:22:59.484Z,0.00
2019-02-25T02:23:59.398Z,0.00
2019-02-25T02:24:59.301Z,0.00
2019-02-25T02:25:59.224Z,0.00
2019-02-25T02:26:59.127Z,0.00
2019-02-25T02:27:59.039Z,0.00
2019-02-25T02:28:58.953Z,0.00
2019-02-25T02:29:58.862Z,0.00
2019-02-25T02:30:58.770Z,0.00
2019-02-25T02:31:58.685Z,0.00
2019-02-25T02:32:58.591Z,0.00
2019-02-25T02:33:58.505Z,0.00
2019-02-25T02:34:58.416Z,0.00
2019-02-25T02:35:58.322Z,0.00
2019-02-25T02:36:58.243Z,0.00
2019-02-25T02:37:58.150Z,0.00
2019-02-25T02:38:58.059Z,0.00
2019-02-25T02:39:57.969Z,0.00
2019-02-25T02:40:57.881Z,0.00
2019-02-25T02:41:57.792Z,0.00
2019-02-25T02:42:57.707Z,0.00
2019-02-25T02:43:57.611Z,0.00
2019-02-25T02:44:57.539Z,0.00
2019-02-25T02:45:57.436Z,0.00
2019-02-25T02:46:57.348Z,0.00
2019-02-25T02:47:57.260Z,0.00
2019-02-25T02:48:57.170Z,0.00
2019-02-25T02:49:57.075Z,0.00
2019-02-25T02:50:56.993Z,0.00
2019-02-25T02:51:56.908Z,0.00
2019-02-25T02:52:56.818Z,0.00
2019-02-25T02:53:56.724Z,0.00
2019-02-25T02:54:56.656Z,0.00
2019-02-25T02:55:56.547Z,0.00
2019-02-25T02:56:56.458Z,0.00
2019-02-25T02:57:56.369Z,0.00
2019-02-25T02:58:56.280Z,0.00
2019-02-25T02:59:56.188Z,0.00
2019-02-25T03:00:56.156Z,0.00
2019-02-25T03:01:56.012Z,0.00
2019-02-25T03:02:55.926Z,0.00
2019-02-25T03:03:55.835Z,0.00
2019-02-25T03:04:55.752Z,0.00
2019-02-25T03:05:55.666Z,0.00
2019-02-25T03:06:55.568Z,0.00
2019-02-25T03:07:55.480Z,0.00
2019-02-25T03:08:55.388Z,0.00
2019-02-25T03:09:55.301Z,0.00
2019-02-25T03:10:55.211Z,0.00
2019-02-25T03:11:55.121Z,0.00
2019-02-25T03:12:55.033Z,0.00
2019-02-25T03:13:54.944Z,0.00
2019-02-25T03:14:54.855Z,0.00
2019-02-25T03:15:54.766Z,0.00
2019-02-25T03:16:54.678Z,0.00
2019-02-25T03:17:54.581Z,0.00
2019-02-25T03:18:54.500Z,0.00
2019-02-25T03:19:54.410Z,0.00
2019-02-25T03:20:54.321Z,0.00
2019-02-25T03:21:54.229Z,0.00
2019-02-25T03:22:54.141Z,0.00
2019-02-25T03:23:54.054Z,0.00
2019-02-25T03:24:53.965Z,0.00
2019-02-25T03:25:53.874Z,0.00
2019-02-25T03:26:53.799Z,0.00
2019-02-25T03:27:53.692Z,0.00
2019-02-25T03:28:53.608Z,0.00
2019-02-25T03:29:53.516Z,0.00
2019-02-25T03:30:53.433Z,0.00
2019-02-25T03:33:26.460Z,0.00
2019-02-25T03:34:26.264Z,0.00
2019-02-25T03:36:31.588Z,0.00
2019-02-25T03:37:31.491Z,0.00
2019-02-25T03:38:31.403Z,0.00
2019-02-25T03:39:31.314Z,0.00
2019-02-25T03:40:31.226Z,0.00
2019-02-25T03:41:31.140Z,0.00
2019-02-25T03:42:31.045Z,0.00
2019-02-25T03:43:30.958Z,0.00
2019-02-25T03:44:30.866Z,0.00
2019-02-25T03:45:30.789Z,0.00
2019-02-25T03:46:30.690Z,0.00
2019-02-25T03:47:30.600Z,0.00
2019-02-25T03:48:30.514Z,0.00
2019-02-25T03:49:30.422Z,0.00
2019-02-25T03:50:30.334Z,0.00
2019-02-25T03:51:30.243Z,0.00
2019-02-25T03:52:30.153Z,0.00
2019-02-25T03:53:30.065Z,0.00
2019-02-25T03:54:29.978Z,0.00
2019-02-25T03:55:29.898Z,0.00
2019-02-25T03:56:29.793Z,0.00
2019-02-25T03:57:29.712Z,0.00
2019-02-25T03:58:29.623Z,0.00
2019-02-25T03:59:29.535Z,0.00
2019-02-25T04:00:29.445Z,0.00
2019-02-25T04:01:29.351Z,0.00
2019-02-25T04:02:29.264Z,0.00
2019-02-25T04:03:29.175Z,0.00
2019-02-25T04:04:29.085Z,0.00
2019-02-25T04:05:28.998Z,0.00
2019-02-25T04:06:28.908Z,0.00
2019-02-25T04:07:28.823Z,0.00
2019-02-25T04:08:28.724Z,0.00
2019-02-25T04:09:28.651Z,0.00
2019-02-25T04:10:28.550Z,0.00
2019-02-25T04:11:28.459Z,0.00
2019-02-25T04:12:28.374Z,0.00
2019-02-25T04:13:28.279Z,0.00
2019-02-25T04:14:28.197Z,0.00
2019-02-25T04:15:28.107Z,0.00
2019-02-25T04:16:28.018Z,0.00
2019-02-25T04:17:27.928Z,0.00
2019-02-25T04:18:27.836Z,0.00
2019-02-25T04:19:27.746Z,0.00
2019-02-25T04:20:27.662Z,0.00
2019-02-25T04:21:27.575Z,0.00
2019-02-25T04:22:27.483Z,0.00
2019-02-25T04:23:27.393Z,0.00
2019-02-25T04:24:27.312Z,0.00
2019-02-25T04:25:27.213Z,0.00
2019-02-25T04:26:27.134Z,0.00
2019-02-25T04:27:27.040Z,0.00
2019-02-25T04:28:26.947Z,0.00
2019-02-25T04:29:26.856Z,0.00
2019-02-25T04:30:26.779Z,0.00
2019-02-25T04:31:26.687Z,0.00
2019-02-25T04:32:26.591Z,0.00
2019-02-25T04:33:26.503Z,0.00
2019-02-25T04:34:26.413Z,0.00
2019-02-25T04:35:26.323Z,0.00
2019-02-25T04:36:26.230Z,0.00
2019-02-25T04:37:26.152Z,0.00
2019-02-25T04:38:26.057Z,0.00
2019-02-25T04:39:25.967Z,0.00
2019-02-25T04:40:25.877Z,0.00
2019-02-25T04:41:25.808Z,0.00
2019-02-25T04:42:25.695Z,0.00
2019-02-25T04:43:25.609Z,0.00
2019-02-25T04:44:25.518Z,0.00
2019-02-25T04:45:25.432Z,0.00
2019-02-25T04:46:25.345Z,0.00
2019-02-25T04:47:25.253Z,0.00
2019-02-25T04:48:25.160Z,0.00
2019-02-25T04:49:25.075Z,0.00
2019-02-25T04:50:24.986Z,0.00
2019-02-25T04:51:24.895Z,0.00
2019-02-25T04:52:24.808Z,0.00
2019-02-25T04:53:24.717Z,0.00
2019-02-25T04:54:24.629Z,0.00
2019-02-25T04:55:24.541Z,0.00
2019-02-25T04:56:25.336Z,0.00
2019-02-25T04:57:24.357Z,0.00
2019-02-25T04:58:24.269Z,0.00
2019-02-25T04:59:24.175Z,0.00
2019-02-25T05:00:24.091Z,0.00
2019-02-25T05:01:24.004Z,0.00
2019-02-25T05:02:23.911Z,0.00
2019-02-25T05:03:23.824Z,0.00
2019-02-25T05:04:23.746Z,0.00
2019-02-25T05:05:23.649Z,0.00
2019-02-25T05:06:23.556Z,0.00
2019-02-25T05:07:23.464Z,0.00
2019-02-25T05:08:23.376Z,0.00
2019-02-25T05:09:23.286Z,0.00
2019-02-25T05:10:23.197Z,0.00
2019-02-25T05:11:23.109Z,0.00
2019-02-25T05:12:23.017Z,0.00
2019-02-25T05:13:22.928Z,0.00
2019-02-25T05:14:22.839Z,0.00
2019-02-25T05:15:22.761Z,0.00
2019-02-25T05:16:22.659Z,0.00
2019-02-25T05:17:22.565Z,0.00
2019-02-25T05:18:22.485Z,0.00
2019-02-25T05:19:22.394Z,0.00
2019-02-25T05:20:22.305Z,0.00
2019-02-25T05:21:22.209Z,0.00
2019-02-25T05:22:22.152Z,0.00
2019-02-25T05:23:22.030Z,0.00
2019-02-25T05:24:21.943Z,0.00
2019-02-25T05:25:21.852Z,0.00
2019-02-25T05:26:21.766Z,0.00
2019-02-25T05:27:21.690Z,0.00
2019-02-25T05:28:21.582Z,0.00
2019-02-25T05:29:21.496Z,0.00
2019-02-25T05:30:21.406Z,0.00
2019-02-25T05:31:21.317Z,0.00
2019-02-25T05:32:21.225Z,0.00
2019-02-25T05:33:21.168Z,0.00
2019-02-25T05:34:21.048Z,0.00
2019-02-25T05:35:20.962Z,0.00
2019-02-25T05:36:20.880Z,0.00
2019-02-25T05:37:20.795Z,4.00
2019-02-25T05:38:20.692Z,0.00
2019-02-25T05:39:20.601Z,4.00
2019-02-25T05:40:20.513Z,4.00
2019-02-25T05:41:20.421Z,4.00
2019-02-25T05:42:20.351Z,4.00
2019-02-25T05:43:20.242Z,4.00
2019-02-25T05:44:20.149Z,4.00
2019-02-25T05:45:20.075Z,8.00
2019-02-25T05:46:19.970Z,8.00
2019-02-25T05:47:19.884Z,12.00
2019-02-25T05:48:19.791Z,12.00
2019-02-25T05:49:19.702Z,20.00
2019-02-25T05:50:19.620Z,20.00
2019-02-25T05:51:19.532Z,24.00
2019-02-25T05:52:19.431Z,28.00
2019-02-25T05:53:19.348Z,32.00
2019-02-25T05:54:19.255Z,40.00
2019-02-25T05:55:19.170Z,44.00
2019-02-25T05:56:19.125Z,52.00
2019-02-25T05:57:18.991Z,60.00
2019-02-25T05:58:18.894Z,72.00
2019-02-25T05:59:18.811Z,80.00
2019-02-25T06:00:18.721Z,92.00
2019-02-25T06:01:18.670Z,100.00
2019-02-25T06:02:18.539Z,112.00
2019-02-25T06:03:18.456Z,128.00
2019-02-25T06:04:18.361Z,140.00
2019-02-25T06:05:18.269Z,152.00
2019-02-25T06:06:18.184Z,168.00
2019-02-25T06:07:18.094Z,180.00
2019-02-25T06:08:17.999Z,196.00
2019-02-25T06:09:17.931Z,212.00
2019-02-25T06:10:17.824Z,224.00
2019-02-25T06:11:17.735Z,240.00
2019-02-25T06:12:17.646Z,252.00
2019-02-25T06:13:17.611Z,272.00
2019-02-25T06:14:17.468Z,288.00
2019-02-25T06:15:17.387Z,308.00
2019-02-25T06:16:17.296Z,324.00
2019-02-25T06:17:17.211Z,340.00
2019-02-25T06:18:17.106Z,360.00
2019-02-25T06:19:17.027Z,376.00
2019-02-25T06:20:16.927Z,392.00
2019-02-25T06:21:16.837Z,408.00
2019-02-25T06:22:16.753Z,428.00
2019-02-25T06:23:16.659Z,440.00
2019-02-25T06:24:16.577Z,456.00
2019-02-25T06:25:16.486Z,476.00
2019-02-25T06:26:16.393Z,500.00
2019-02-25T06:27:16.301Z,516.00
2019-02-25T06:28:16.210Z,528.00
2019-02-25T06:29:16.137Z,548.00
2019-02-25T06:30:16.051Z,564.00
2019-02-25T06:31:15.959Z,584.00
2019-02-25T06:32:15.858Z,616.00
2019-02-25T06:33:15.781Z,628.00
2019-02-25T06:34:15.679Z,644.00
2019-02-25T06:35:15.589Z,668.00
2019-02-25T06:36:15.511Z,692.00
2019-02-25T06:37:15.411Z,716.00
2019-02-25T06:38:15.369Z,744.00
2019-02-25T06:39:15.235Z,764.00
2019-02-25T06:40:15.745Z,776.00
2019-02-25T06:41:15.054Z,796.00
2019-02-25T06:42:14.969Z,812.00
2019-02-25T06:43:14.877Z,828.00
2019-02-25T06:44:14.785Z,844.00
2019-02-25T06:45:14.695Z,868.00
2019-02-25T06:46:14.609Z,896.00
2019-02-25T06:47:14.518Z,916.00
2019-02-25T06:48:14.429Z,936.00
2019-02-25T06:49:14.382Z,952.00
2019-02-25T06:50:14.269Z,968.00
2019-02-25T06:51:14.159Z,984.00
2019-02-25T06:52:14.071Z,1000.00
2019-02-25T06:53:13.982Z,1020.00
2019-02-25T06:54:13.909Z,1036.00
2019-02-25T06:55:13.805Z,1052.00
2019-02-25T06:56:13.715Z,1068.00
2019-02-25T06:57:13.629Z,1080.00
2019-02-25T06:58:13.535Z,1088.00
2019-02-25T06:59:13.449Z,1104.00
2019-02-25T07:00:13.372Z,1112.00
2019-02-25T07:01:13.271Z,1120.00
2019-02-25T07:02:13.181Z,1128.00
2019-02-25T07:03:13.092Z,1124.00
2019-02-25T07:04:13.001Z,1136.00
2019-02-25T07:05:12.912Z,1148.00
2019-02-25T07:06:12.822Z,1152.00
2019-02-25T07:07:12.736Z,1156.00
2019-02-25T07:08:12.676Z,1168.00
2019-02-25T07:09:12.557Z,1192.00
2019-02-25T07:10:12.470Z,1192.00
2019-02-25T07:11:12.379Z,1180.00
2019-02-25T07:12:12.286Z,1192.00
2019-02-25T07:13:12.202Z,1208.00
2019-02-25T07:14:12.117Z,1216.00
2019-02-25T07:15:12.025Z,1248.00
2019-02-25T07:16:11.934Z,1228.00
2019-02-25T07:17:11.857Z,1248.00
2019-02-25T07:18:11.755Z,1284.00
2019-02-25T07:19:11.670Z,1280.00
2019-02-25T07:20:11.620Z,1280.00
2019-02-25T07:21:11.488Z,1308.00
2019-02-25T07:22:11.402Z,1332.00
2019-02-25T07:23:11.315Z,1344.00
2019-02-25T07:24:11.224Z,1388.00
2019-02-25T07:25:11.137Z,1416.00
2019-02-25T07:26:11.046Z,1436.00
2019-02-25T07:27:10.953Z,1444.00
2019-02-25T07:28:10.870Z,1396.00
2019-02-25T07:29:10.782Z,1392.00
2019-02-25T07:30:10.691Z,1464.00
2019-02-25T07:31:10.601Z,1492.00
2019-02-25T07:32:10.508Z,1524.00
2019-02-25T07:33:10.420Z,1552.00
2019-02-25T07:34:10.335Z,1580.00
2019-02-25T07:35:10.263Z,1628.00
2019-02-25T07:36:10.158Z,1640.00
2019-02-25T07:37:10.066Z,1664.00
2019-02-25T07:38:09.973Z,1688.00
2019-02-25T07:39:09.889Z,1708.00
2019-02-25T07:40:09.801Z,1704.00
2019-02-25T07:41:09.710Z,1688.00
2019-02-25T07:42:09.621Z,1672.00
2019-02-25T07:43:09.534Z,1664.00
2019-02-25T07:44:09.444Z,1656.00
2019-02-25T07:45:09.354Z,1688.00
2019-02-25T07:46:09.269Z,1672.00
2019-02-25T07:47:09.181Z,1676.00
2019-02-25T07:48:09.139Z,1676.00
2019-02-25T07:49:08.997Z,1700.00
2019-02-25T07:50:08.912Z,1704.00
2019-02-25T07:51:08.828Z,1732.00
2019-02-25T07:52:08.735Z,1744.00
2019-02-25T07:53:08.645Z,1736.00
2019-02-25T07:54:08.561Z,1732.00
2019-02-25T07:55:08.471Z,1736.00
2019-02-25T07:56:08.388Z,1736.00
2019-02-25T07:57:08.293Z,1748.00
2019-02-25T07:58:08.223Z,1776.00
2019-02-25T07:59:08.118Z,1772.00
2019-02-25T08:00:08.028Z,1740.00
2019-02-25T08:01:07.940Z,1716.00
2019-02-25T08:02:07.850Z,1728.00
2019-02-25T08:03:07.763Z,1756.00
2019-02-25T08:04:07.670Z,1804.00
2019-02-25T08:05:07.587Z,1836.00
2019-02-25T08:06:07.496Z,1860.00
2019-02-25T08:07:07.410Z,1876.00
2019-02-25T08:08:07.321Z,1916.00
2019-02-25T08:09:07.229Z,1928.00
2019-02-25T08:10:07.145Z,1956.00
2019-02-25T08:11:07.050Z,1948.00
2019-02-25T08:12:06.966Z,1956.00
2019-02-25T08:13:06.874Z,1948.00
2019-02-25T08:14:06.792Z,1932.00
2019-02-25T08:15:08.885Z,1936.00
2019-02-25T08:16:06.620Z,1960.00
2019-02-25T08:17:06.526Z,1976.00
2019-02-25T08:18:06.444Z,1988.00
2019-02-25T08:19:06.347Z,1976.00
2019-02-25T08:20:06.267Z,1968.00
2019-02-25T08:21:06.175Z,1980.00
2019-02-25T08:22:06.090Z,1988.00
2019-02-25T08:23:05.999Z,2008.00
2019-02-25T08:24:05.908Z,2008.00
2019-02-25T08:25:05.822Z,2020.00
2019-02-25T08:26:05.729Z,2012.00
2019-02-25T08:27:05.647Z,2000.00
2019-02-25T08:28:05.567Z,1988.00
2019-02-25T08:29:05.469Z,1960.00
2019-02-25T08:30:05.436Z,1952.00
2019-02-25T08:31:05.294Z,1956.00
2019-02-25T08:32:05.208Z,1944.00
2019-02-25T08:33:05.118Z,1904.00
2019-02-25T08:34:05.033Z,1896.00
2019-02-25T08:35:04.935Z,1928.00
2019-02-25T08:36:04.847Z,1928.00
2019-02-25T08:37:04.765Z,1924.00
2019-02-25T08:38:04.679Z,1916.00
2019-02-25T08:39:04.594Z,1928.00
2019-02-25T08:40:04.502Z,1924.00
2019-02-25T08:41:04.416Z,1924.00
2019-02-25T08:42:04.333Z,1920.00
2019-02-25T08:43:04.238Z,1888.00
2019-02-25T08:44:04.152Z,1880.00
2019-02-25T08:45:04.070Z,1864.00
2019-02-25T08:46:03.977Z,1872.00
2019-02-25T08:47:03.882Z,1880.00
2019-02-25T08:48:03.798Z,1892.00
2019-02-25T08:49:03.729Z,1892.00
2019-02-25T08:50:03.622Z,1904.00
2019-02-25T08:51:03.556Z,1912.00
2019-02-25T08:52:03.472Z,1916.00
2019-02-25T08:53:03.362Z,1884.00
2019-02-25T08:54:03.276Z,1920.00
2019-02-25T08:55:03.187Z,1928.00
2019-02-25T08:56:03.099Z,1912.00
2019-02-25T08:57:03.011Z,1912.00
2019-02-25T08:58:02.922Z,1916.00
2019-02-25T08:59:02.841Z,1924.00
2019-02-25T09:00:02.744Z,1932.00
2019-02-25T09:01:02.663Z,1928.00
2019-02-25T09:02:02.574Z,1960.00
2019-02-25T09:03:02.486Z,1992.00
2019-02-25T09:04:02.398Z,2012.00
2019-02-25T09:05:02.312Z,2016.00
2019-02-25T09:06:02.222Z,1980.00
2019-02-25T09:07:02.138Z,2024.00
2019-02-25T09:08:02.048Z,2032.00
2019-02-25T09:09:01.962Z,2016.00
2019-02-25T09:10:01.885Z,2032.00
2019-02-25T09:11:01.789Z,2060.00
2019-02-25T09:12:01.705Z,2040.00
2019-02-25T09:13:01.613Z,2036.00
2019-02-25T09:14:01.526Z,2028.00
2019-02-25T09:15:01.438Z,2028.00
2019-02-25T09:16:01.353Z,2032.00
2019-02-25T09:17:01.264Z,2024.00
2019-02-25T09:18:01.172Z,2104.00
2019-02-25T09:19:01.093Z,2144.00
2019-02-25T09:20:01.002Z,2132.00
2019-02-25T09:21:00.919Z,2072.00
2019-02-25T09:22:00.828Z,2092.00
2019-02-25T09:23:00.749Z,2156.00
2019-02-25T09:24:00.655Z,2176.00
2019-02-25T09:25:00.567Z,2196.00
2019-02-25T09:26:00.482Z,2196.00
2019-02-25T09:27:00.389Z,2200.00
2019-02-25T09:28:00.307Z,2204.00
2019-02-25T09:29:00.216Z,2208.00
2019-02-25T09:30:00.138Z,2224.00
2019-02-25T09:31:00.052Z,2240.00
2019-02-25T09:31:59.960Z,2248.00
2019-02-25T09:33:07.051Z,2276.00
2019-02-25T09:35:03.682Z,2324.00
2019-02-25T09:36:03.577Z,2340.00
2019-02-25T09:37:03.490Z,2380.00
2019-02-25T09:38:03.411Z,2368.00
2019-02-25T09:39:03.331Z,2356.00
2019-02-25T09:40:03.232Z,2356.00
2019-02-25T09:41:03.139Z,2356.00
2019-02-25T09:42:03.055Z,2356.00
2019-02-25T09:43:02.962Z,2348.00
2019-02-25T09:44:02.889Z,2364.00
2019-02-25T09:45:02.797Z,2356.00
2019-02-25T09:46:02.711Z,2356.00
2019-02-25T09:47:02.623Z,2360.00
2019-02-25T09:48:02.540Z,2364.00
2019-02-25T09:49:02.454Z,2368.00
2019-02-25T09:50:02.372Z,2376.00
2019-02-25T09:51:02.282Z,2384.00
2019-02-25T09:52:02.194Z,2364.00
2019-02-25T09:53:02.113Z,2380.00
2019-02-25T09:54:02.034Z,2404.00
2019-02-25T09:55:01.943Z,2420.00
2019-02-25T09:56:01.852Z,2420.00
2019-02-25T09:57:01.763Z,2428.00
2019-02-25T09:58:01.673Z,2440.00
2019-02-25T09:59:01.591Z,2448.00
2019-02-25T10:00:01.542Z,2464.00
2019-02-25T10:01:01.419Z,2484.00
2019-02-25T10:02:01.338Z,2504.00
2019-02-25T10:03:01.250Z,2516.00
2019-02-25T10:04:01.160Z,2524.00
2019-02-25T10:05:01.077Z,2560.00
2019-02-25T10:06:00.987Z,2536.00
2019-02-25T10:07:02.503Z,2548.00
2019-02-25T10:08:00.813Z,2564.00
2019-02-25T10:09:00.727Z,2576.00
2019-02-25T10:10:00.647Z,2584.00
2019-02-25T10:11:00.555Z,2592.00
2019-02-25T10:12:00.474Z,2612.00
2019-02-25T10:13:00.388Z,2632.00
2019-02-25T10:14:00.300Z,2660.00
2019-02-25T10:15:00.317Z,2700.00
2019-02-25T10:16:00.128Z,2736.00
2019-02-25T10:17:00.052Z,2768.00
2019-02-25T10:17:59.969Z,2796.00
2019-02-25T10:18:59.873Z,2840.00
2019-02-25T10:19:59.789Z,2936.00
2019-02-25T10:20:59.704Z,2972.00
2019-02-25T10:21:59.622Z,3024.00
2019-02-25T10:22:59.534Z,3036.00
2019-02-25T10:23:59.453Z,3040.00
2019-02-25T10:24:59.363Z,3044.00
2019-02-25T10:25:59.282Z,3024.00
2019-02-25T10:26:59.192Z,3052.00
2019-02-25T10:27:59.106Z,3100.00
2019-02-25T10:28:59.025Z,3116.00
2019-02-25T10:29:58.939Z,3140.00
2019-02-25T10:30:58.852Z,3188.00
2019-02-25T10:32:00.120Z,3204.00
2019-02-25T10:33:00.678Z,3232.00
2019-02-25T10:33:58.598Z,3304.00
2019-02-25T10:34:58.513Z,3400.00
2019-02-25T10:35:58.426Z,4036.00
2019-02-25T10:36:58.342Z,10564.00
2019-02-25T10:37:58.262Z,14824.00
2019-02-25T10:38:58.176Z,15492.00
2019-02-25T10:39:58.093Z,15900.00
2019-02-25T10:40:59.416Z,16456.00
2019-02-25T10:41:59.492Z,7860.00
2019-02-25T10:42:57.840Z,3776.00
2019-02-25T10:43:58.488Z,3764.00
2019-02-25T10:44:57.672Z,3880.00
2019-02-25T10:45:57.589Z,4192.00
2019-02-25T10:46:57.507Z,13336.00
2019-02-25T10:47:58.741Z,21536.00
2019-02-25T10:48:59.091Z,15696.00
2019-02-25T10:49:58.649Z,17760.00
2019-02-25T10:50:57.175Z,26112.00
2019-02-25T10:51:57.092Z,21024.00
2019-02-25T10:53:03.378Z,11148.00
2019-02-25T10:53:56.925Z,10576.00
2019-02-25T10:54:58.276Z,18624.00
2019-02-25T10:55:56.764Z,23232.00
2019-02-25T10:56:57.887Z,18400.00
2019-02-25T10:57:57.606Z,18048.00
2019-02-25T10:58:57.706Z,17056.00
2019-02-25T10:59:56.444Z,17248.00
2019-02-25T11:00:56.370Z,13960.00
2019-02-25T11:01:56.276Z,12848.00
2019-02-25T11:02:58.147Z,10584.00
2019-02-25T11:03:56.119Z,12264.00
2019-02-25T11:04:57.658Z,15616.00
2019-02-25T11:05:56.348Z,18144.00
2019-02-25T11:06:55.889Z,20416.00
2019-02-25T11:07:55.802Z,16320.00
2019-02-25T11:08:55.722Z,18560.00
2019-02-25T11:09:55.638Z,17248.00
2019-02-25T11:10:55.560Z,15172.00
2019-02-25T11:11:58.033Z,16736.00
2019-02-25T11:12:57.192Z,14352.00
2019-02-25T11:13:55.343Z,11696.00
2019-02-25T11:14:55.242Z,17248.00
2019-02-25T11:15:55.169Z,24256.00
2019-02-25T11:16:55.092Z,26016.00
2019-02-25T11:17:56.082Z,19520.00
2019-02-25T11:18:56.572Z,13504.00
2019-02-25T11:19:56.520Z,14500.00
2019-02-25T11:20:54.779Z,13396.00
2019-02-25T11:21:54.697Z,11840.00
2019-02-25T11:22:54.623Z,11588.00
2019-02-25T11:23:54.550Z,13192.00
2019-02-25T11:24:55.612Z,17856.00
2019-02-25T11:25:56.271Z,21920.00
2019-02-25T11:26:54.308Z,20192.00
2019-02-25T11:27:54.236Z,17312.00
2019-02-25T11:28:54.157Z,18944.00
2019-02-25T11:29:54.080Z,24352.00
2019-02-25T11:30:54.000Z,28544.00
2019-02-25T11:31:55.540Z,31488.00
2019-02-25T11:32:55.668Z,32768.00
2019-02-25T11:33:53.768Z,39776.00
2019-02-25T11:34:53.709Z,46208.00
2019-02-25T11:35:53.624Z,52704.00
2019-02-25T11:36:55.486Z,55392.00
2019-02-25T11:37:54.720Z,55488.00
2019-02-25T11:38:53.402Z,54080.00
2019-02-25T11:39:54.932Z,53568.00
2019-02-25T11:40:53.259Z,56320.00
2019-02-25T11:41:53.170Z,60736.00
2019-02-25T11:42:53.099Z,62848.00
2019-02-25T11:43:55.196Z,62656.00
2019-02-25T11:44:54.265Z,64448.00
2019-02-25T11:45:52.894Z,62880.00
2019-02-25T11:46:52.818Z,64832.00
2019-02-25T11:47:52.751Z,65152.00
2019-02-25T11:48:52.686Z,63808.00
2019-02-25T11:49:52.613Z,64608.00
2019-02-25T11:50:52.541Z,54752.00
2019-02-25T11:51:52.478Z,62528.00
2019-02-25T11:52:52.424Z,55904.00
2019-02-25T11:53:52.342Z,47648.00
2019-02-25T11:54:52.278Z,30272.00
2019-02-25T11:55:52.211Z,31552.00
2019-02-25T11:56:52.154Z,22720.00
2019-02-25T11:57:52.080Z,16608.00
2019-02-25T11:58:52.004Z,32064.00
2019-02-25T11:59:51.937Z,33600.00
2019-02-25T12:00:51.867Z,16736.00
2019-02-25T12:01:51.817Z,17280.00
2019-02-25T12:02:51.731Z,14276.00
2019-02-25T12:03:51.660Z,12324.00
2019-02-25T12:04:51.589Z,11004.00
2019-02-25T12:05:52.604Z,11248.00
2019-02-25T12:06:51.462Z,11056.00
2019-02-25T12:07:51.474Z,10792.00
2019-02-25T12:08:51.310Z,10896.00
2019-02-25T12:09:51.245Z,10816.00
2019-02-25T12:10:51.177Z,9704.00
2019-02-25T12:11:51.105Z,10848.00
2019-02-25T12:12:51.037Z,10760.00
2019-02-25T12:13:50.958Z,10844.00
2019-02-25T12:14:50.890Z,11076.00
2019-02-25T12:15:50.817Z,11060.00
2019-02-25T12:16:50.751Z,11012.00
2019-02-25T12:17:50.674Z,11112.00
2019-02-25T12:18:50.611Z,11108.00
2019-02-25T12:19:50.533Z,9736.00
2019-02-25T12:20:50.455Z,10852.00
2019-02-25T12:21:50.391Z,10908.00
2019-02-25T12:22:50.349Z,11284.00
2019-02-25T12:23:50.277Z,11140.00
2019-02-25T12:24:50.186Z,11888.00
2019-02-25T12:25:50.103Z,11952.00
2019-02-25T12:26:50.034Z,12440.00
2019-02-25T12:27:49.958Z,12388.00
2019-02-25T12:28:49.889Z,12620.00
2019-02-25T12:29:49.818Z,13076.00
2019-02-25T12:30:49.740Z,12700.00
2019-02-25T12:31:49.673Z,13832.00
2019-02-25T12:32:49.602Z,17056.00
2019-02-25T12:33:49.530Z,26400.00
2019-02-25T12:34:49.459Z,28064.00
2019-02-25T12:35:49.390Z,48768.00
2019-02-25T12:36:49.319Z,69408.00
2019-02-25T12:37:49.250Z,55040.00
2019-02-25T12:38:49.179Z,34528.00